ADDS TAF Data INFO
IDs: Format: Raw Decoded Include METARs

Data at: 1318 UTC 29 Mar 2017

TAF ETSI 291015Z 2911/2920 27010G20KT 9999 NSW SCT040 BKN260


Page loaded:  13:18 UTC  |   06:18 AM Pacific  |   07:18 AM Mountain  |   08:18 AM Central  |   09:18 AM Eastern

 

ADVISORIES

FORECASTS

FORECASTS

OBSERVATIONS

USER TOOLS

ABOUT US